createdAt,value
2023-02-20T00:01:47.164Z,98.70
2023-02-20T00:04:18.700Z,98.86
2023-02-20T00:06:46.902Z,98.84
2023-02-20T00:09:15.021Z,98.79
2023-02-20T00:11:43.334Z,98.62
2023-02-20T00:14:11.255Z,98.40
2023-02-20T00:16:39.373Z,97.98
2023-02-20T00:19:07.327Z,97.75
2023-02-20T00:21:35.175Z,97.59
2023-02-20T00:24:03.188Z,97.20
2023-02-20T00:26:31.130Z,97.25
2023-02-20T00:28:59.006Z,97.22
2023-02-20T00:31:27.662Z,96.83
2023-02-20T00:33:56.142Z,96.63
2023-02-20T00:36:24.123Z,96.38
2023-02-20T00:38:51.948Z,96.50
2023-02-20T00:41:21.999Z,96.08
2023-02-20T00:43:49.988Z,95.73
2023-02-20T00:46:17.982Z,95.74
2023-02-20T00:48:46.083Z,95.55
2023-02-20T00:51:33.539Z,95.40
2023-02-20T00:54:02.078Z,95.20
2023-02-20T00:56:30.999Z,95.20
2023-02-20T00:58:58.903Z,94.93
2023-02-20T01:01:27.833Z,94.83
2023-02-20T01:03:56.115Z,94.89
2023-02-20T01:06:24.805Z,94.77
2023-02-20T01:08:52.848Z,94.68
2023-02-20T01:11:22.548Z,94.63
2023-02-20T01:13:50.592Z,94.89
2023-02-20T01:16:18.741Z,94.54
2023-02-20T01:18:50.092Z,94.69
2023-02-20T01:21:18.696Z,94.80
2023-02-20T01:23:46.612Z,94.44
2023-02-20T01:26:14.904Z,94.55
2023-02-20T01:28:49.155Z,94.65
2023-02-20T01:31:18.039Z,94.66
2023-02-20T01:33:46.042Z,94.67
2023-02-20T01:36:14.781Z,94.81
2023-02-20T01:38:42.918Z,94.83
2023-02-20T01:41:12.208Z,95.12
2023-02-20T01:43:40.495Z,95.01
2023-02-20T01:46:27.137Z,95.10
2023-02-20T01:49:07.983Z,95.34
2023-02-20T01:51:41.728Z,95.08
2023-02-20T01:54:14.731Z,95.22
2023-02-20T01:56:46.980Z,95.21
2023-02-20T01:59:16.938Z,95.15
2023-02-20T02:01:46.542Z,95.19
2023-02-20T02:04:15.514Z,95.21
2023-02-20T02:06:49.848Z,95.25
2023-02-20T02:09:34.360Z,95.18
2023-02-20T02:12:02.769Z,95.43
2023-02-20T02:14:31.761Z,95.30
2023-02-20T02:17:21.805Z,95.45
2023-02-20T02:20:15.893Z,95.25
2023-02-20T02:23:21.611Z,95.31
2023-02-20T02:25:52.490Z,95.52
2023-02-20T02:28:23.811Z,95.28
2023-02-20T02:31:32.734Z,95.39
2023-02-20T02:34:14.497Z,95.35
2023-02-20T02:37:11.333Z,95.48
2023-02-20T02:39:49.138Z,95.53
2023-02-20T02:42:24.413Z,95.50
2023-02-20T02:45:10.445Z,95.63
2023-02-20T02:47:51.131Z,95.65
2023-02-20T02:50:22.352Z,95.74
2023-02-20T02:52:51.940Z,95.71
2023-02-20T02:55:26.507Z,95.67
2023-02-20T02:57:55.572Z,95.71
2023-02-20T03:00:36.580Z,95.45
2023-02-20T03:03:04.356Z,95.47
2023-02-20T03:05:41.092Z,95.55
2023-02-20T03:08:22.708Z,95.82
2023-02-20T03:10:53.506Z,95.70
2023-02-20T03:13:22.185Z,95.63
2023-02-20T03:15:55.021Z,95.75
2023-02-20T03:18:35.919Z,95.71
2023-02-20T03:21:17.259Z,96.06
2023-02-20T03:23:56.547Z,95.81
2023-02-20T03:26:29.972Z,95.95
2023-02-20T03:29:24.403Z,96.07
2023-02-20T03:32:16.468Z,96.09
2023-02-20T03:35:05.254Z,96.00
2023-02-20T03:37:57.513Z,96.16
2023-02-20T03:40:45.407Z,95.97
2023-02-20T03:43:28.038Z,96.34
2023-02-20T03:46:07.162Z,96.18
2023-02-20T03:48:45.799Z,96.43
2023-02-20T03:51:15.244Z,96.33
2023-02-20T03:53:48.921Z,96.22
2023-02-20T03:56:26.959Z,96.43
2023-02-20T03:59:22.495Z,96.58
2023-02-20T04:02:43.821Z,96.41
2023-02-20T04:05:21.718Z,96.62
2023-02-20T04:07:58.978Z,96.56
2023-02-20T04:10:34.926Z,96.78
2023-02-20T04:13:05.105Z,96.96
2023-02-20T04:15:35.567Z,96.91
2023-02-20T04:18:09.981Z,96.93
2023-02-20T04:20:38.391Z,97.27
2023-02-20T04:23:18.058Z,97.57
2023-02-20T04:26:01.681Z,97.48
2023-02-20T04:28:31.812Z,97.84
2023-02-20T04:34:36.176Z,98.22
2023-02-20T04:37:18.939Z,98.29
2023-02-20T04:39:48.462Z,98.24
2023-02-20T04:42:17.351Z,98.72
2023-02-20T04:44:45.544Z,99.08
2023-02-20T04:47:17.123Z,99.27
2023-02-20T04:49:45.347Z,99.53
2023-02-20T04:52:16.215Z,99.72
2023-02-20T04:54:44.184Z,99.70
2023-02-20T04:57:14.206Z,99.90
2023-02-20T04:59:42.408Z,99.86
2023-02-20T05:02:12.829Z,99.65
2023-02-20T05:04:41.437Z,99.79
2023-02-20T05:07:09.616Z,99.85
2023-02-20T05:09:37.576Z,99.91
2023-02-20T05:12:05.937Z,99.96
2023-02-20T05:14:33.848Z,99.94
2023-02-20T05:17:01.743Z,99.92
2023-02-20T05:19:29.732Z,100.00
2023-02-20T05:22:16.060Z,99.96
2023-02-20T05:24:44.910Z,99.89
2023-02-20T05:27:14.912Z,99.95
2023-02-20T05:29:50.804Z,99.78
2023-02-20T05:32:19.906Z,99.86
2023-02-20T05:34:57.232Z,99.99
2023-02-20T05:37:27.525Z,99.87
2023-02-20T05:39:55.474Z,100.00
2023-02-20T05:42:23.403Z,99.86
2023-02-20T05:44:51.409Z,100.00
2023-02-20T05:47:19.471Z,99.95
2023-02-20T05:49:47.740Z,100.00
2023-02-20T05:52:15.730Z,100.00
2023-02-20T05:54:46.802Z,99.99
2023-02-20T05:57:15.910Z,100.00
2023-02-20T05:59:43.842Z,100.00
2023-02-20T06:02:11.861Z,100.00
2023-02-20T06:04:39.951Z,100.00
2023-02-20T06:07:10.505Z,100.00
2023-02-20T06:09:42.990Z,100.00
2023-02-20T06:12:12.650Z,100.00
2023-02-20T06:14:40.537Z,100.00
2023-02-20T06:17:08.618Z,100.00
2023-02-20T06:19:36.524Z,100.00
2023-02-20T06:22:04.414Z,100.00
2023-02-20T06:24:32.377Z,100.00
2023-02-20T06:27:01.668Z,100.00
2023-02-20T06:29:29.514Z,100.00
2023-02-20T06:32:01.109Z,100.00
2023-02-20T06:34:33.528Z,100.00
2023-02-20T06:37:04.811Z,100.00
2023-02-20T06:39:33.468Z,100.00
2023-02-20T06:42:02.393Z,100.00
2023-02-20T06:44:30.704Z,100.00
2023-02-20T06:46:59.190Z,100.00
2023-02-20T06:49:27.081Z,100.00
2023-02-20T06:51:55.107Z,100.00
2023-02-20T06:54:23.022Z,100.00
2023-02-20T06:56:52.563Z,100.00
2023-02-20T06:59:20.446Z,100.00
2023-02-20T07:01:48.356Z,100.00
2023-02-20T07:04:16.460Z,100.00
2023-02-20T07:06:44.622Z,100.00
2023-02-20T07:09:12.605Z,100.00
2023-02-20T07:11:41.443Z,100.00
2023-02-20T07:14:10.061Z,100.00
2023-02-20T07:16:37.977Z,100.00
2023-02-20T07:19:05.941Z,100.00
2023-02-20T07:21:33.883Z,100.00
2023-02-20T07:24:02.537Z,100.00
2023-02-20T07:26:31.208Z,100.00
2023-02-20T07:29:00.641Z,100.00
2023-02-20T07:31:29.311Z,100.00
2023-02-20T07:33:57.973Z,100.00
2023-02-20T07:36:26.250Z,100.00
2023-02-20T07:38:59.437Z,99.99
2023-02-20T07:41:31.755Z,100.00
2023-02-20T07:43:59.767Z,100.00
2023-02-20T07:46:28.215Z,100.00
2023-02-20T07:48:56.008Z,99.99
2023-02-20T07:51:23.889Z,100.00
2023-02-20T07:53:53.279Z,100.00
2023-02-20T07:56:22.512Z,100.00
2023-02-20T07:58:50.889Z,100.00
2023-02-20T08:01:19.789Z,100.00
2023-02-20T08:03:48.004Z,100.00
2023-02-20T08:06:19.757Z,100.00
2023-02-20T08:08:50.249Z,100.00
2023-02-20T08:11:20.092Z,100.00
2023-02-20T08:13:48.151Z,100.00
2023-02-20T08:16:16.429Z,99.61
2023-02-20T08:18:45.160Z,99.82
2023-02-20T08:21:13.181Z,99.52
2023-02-20T08:23:41.034Z,98.33
2023-02-20T08:26:09.838Z,98.09
2023-02-20T08:28:37.911Z,96.92
2023-02-20T08:31:06.438Z,97.34
2023-02-20T08:33:34.602Z,97.57
2023-02-20T08:36:03.180Z,97.24
2023-02-20T08:38:34.565Z,97.71
2023-02-20T08:41:08.292Z,98.21
2023-02-20T08:43:37.910Z,99.07
2023-02-20T08:46:07.291Z,99.99
2023-02-20T08:48:36.444Z,100.00
2023-02-20T08:51:06.109Z,100.00
2023-02-20T08:53:37.138Z,100.00
2023-02-20T08:56:06.899Z,100.00
2023-02-20T08:58:34.813Z,100.00
2023-02-20T09:01:02.821Z,100.00
2023-02-20T09:03:30.860Z,100.00
2023-02-20T09:05:58.789Z,100.00
2023-02-20T09:08:27.347Z,100.00
2023-02-20T09:10:55.803Z,100.00
2023-02-20T09:13:23.905Z,100.00
2023-02-20T09:15:51.920Z,100.00
2023-02-20T09:18:19.973Z,100.00
2023-02-20T09:20:48.319Z,100.00
2023-02-20T09:23:16.220Z,100.00
2023-02-20T09:25:44.166Z,100.00
2023-02-20T09:28:12.198Z,100.00
2023-02-20T09:30:40.242Z,100.00
2023-02-20T09:33:08.554Z,100.00
2023-02-20T09:35:36.466Z,100.00
2023-02-20T09:38:04.444Z,100.00
2023-02-20T09:40:32.847Z,100.00
2023-02-20T09:43:42.830Z,100.00
2023-02-20T09:46:22.880Z,100.00
2023-02-20T09:49:09.720Z,100.00
2023-02-20T09:51:41.609Z,100.00
2023-02-20T09:54:16.072Z,100.00
2023-02-20T09:56:54.447Z,100.00
2023-02-20T09:59:27.293Z,100.00
2023-02-20T10:02:04.401Z,100.00
2023-02-20T10:05:00.444Z,100.00
2023-02-20T10:07:31.026Z,100.00
2023-02-20T10:10:00.267Z,100.00
2023-02-20T10:12:53.046Z,100.00
2023-02-20T10:15:23.882Z,100.00
2023-02-20T10:18:10.659Z,100.00
2023-02-20T10:20:56.371Z,100.00
2023-02-20T10:24:04.867Z,100.00
2023-02-20T10:26:42.726Z,100.00
2023-02-20T10:29:15.672Z,100.00
2023-02-20T10:32:01.994Z,100.00
2023-02-20T10:34:37.823Z,100.00
2023-02-20T10:37:15.667Z,100.00
2023-02-20T10:39:52.714Z,100.00
2023-02-20T10:42:36.086Z,100.00
2023-02-20T10:45:38.087Z,100.00
2023-02-20T10:48:15.180Z,100.00
2023-02-20T10:50:53.703Z,100.00
2023-02-20T10:53:45.025Z,100.00
2023-02-20T10:56:33.156Z,100.00
2023-02-20T10:59:06.915Z,100.00
2023-02-20T11:04:41.478Z,100.00
2023-02-20T11:07:14.745Z,100.00
2023-02-20T11:09:42.810Z,100.00
2023-02-20T11:12:32.738Z,100.00
2023-02-20T11:15:17.250Z,100.00
2023-02-20T11:17:46.413Z,100.00
2023-02-20T11:20:41.550Z,100.00
2023-02-20T11:23:10.474Z,100.00
2023-02-20T11:25:42.145Z,100.00
2023-02-20T11:28:19.397Z,100.00
2023-02-20T11:31:00.990Z,100.00
2023-02-20T11:33:32.998Z,100.00
2023-02-20T11:36:17.187Z,100.00
2023-02-20T11:38:48.672Z,100.00
2023-02-20T11:41:25.864Z,100.00
2023-02-20T11:44:18.382Z,100.00
2023-02-20T11:46:47.494Z,100.00
2023-02-20T11:49:28.394Z,100.00
2023-02-20T11:52:19.598Z,100.00
2023-02-20T11:54:57.062Z,100.00
2023-02-20T11:57:29.111Z,100.00
2023-02-20T12:00:12.544Z,100.00
2023-02-20T12:02:55.418Z,100.00
2023-02-20T12:05:46.618Z,100.00
2023-02-20T12:08:35.562Z,100.00
2023-02-20T12:11:09.580Z,100.00
2023-02-20T12:13:43.863Z,100.00
2023-02-20T12:16:18.066Z,100.00
2023-02-20T12:18:55.151Z,100.00
2023-02-20T12:21:23.276Z,100.00
2023-02-20T12:24:02.190Z,100.00
2023-02-20T12:26:45.199Z,100.00
2023-02-20T12:29:34.999Z,100.00
2023-02-20T12:32:18.563Z,100.00
2023-02-20T12:35:05.009Z,100.00
2023-02-20T12:38:22.162Z,100.00
2023-02-20T12:41:08.276Z,100.00
2023-02-20T12:44:12.928Z,100.00
2023-02-20T12:47:17.634Z,100.00
2023-02-20T12:49:55.920Z,100.00
2023-02-20T12:52:23.708Z,100.00
2023-02-20T12:55:21.314Z,100.00
2023-02-20T12:57:49.153Z,100.00
2023-02-20T13:00:34.936Z,100.00
2023-02-20T13:03:08.586Z,100.00
2023-02-20T13:05:42.442Z,100.00
2023-02-20T13:08:18.302Z,100.00
2023-02-20T13:10:57.363Z,100.00
2023-02-20T13:13:36.536Z,100.00
2023-02-20T13:16:14.562Z,100.00
2023-02-20T13:18:52.120Z,100.00
2023-02-20T13:21:26.379Z,100.00
2023-02-20T13:24:31.391Z,100.00
2023-02-20T13:27:06.793Z,100.00
2023-02-20T13:29:55.925Z,100.00
2023-02-20T13:32:30.282Z,100.00
2023-02-20T13:35:36.346Z,100.00
2023-02-20T13:38:24.932Z,100.00
2023-02-20T13:40:55.766Z,100.00
2023-02-20T13:43:23.676Z,100.00
2023-02-20T13:46:01.154Z,100.00
2023-02-20T13:48:29.226Z,100.00
2023-02-20T13:51:15.485Z,100.00
2023-02-20T13:53:50.800Z,100.00
2023-02-20T13:56:25.322Z,100.00
2023-02-20T13:58:58.903Z,100.00
2023-02-20T14:01:26.949Z,100.00
2023-02-20T14:04:06.321Z,100.00
2023-02-20T14:06:34.294Z,100.00
2023-02-20T14:09:10.889Z,100.00
2023-02-20T14:11:40.296Z,100.00
2023-02-20T14:14:11.901Z,100.00
2023-02-20T14:16:44.503Z,100.00
2023-02-20T14:19:21.177Z,100.00
2023-02-20T14:21:49.403Z,100.00
2023-02-20T14:24:31.205Z,100.00
2023-02-20T14:27:26.352Z,100.00
2023-02-20T14:30:26.122Z,100.00
2023-02-20T14:32:56.468Z,100.00
2023-02-20T14:35:49.086Z,100.00
2023-02-20T14:39:04.038Z,100.00
2023-02-20T14:41:32.518Z,100.00
2023-02-20T14:44:03.366Z,100.00
2023-02-20T14:46:34.542Z,100.00
2023-02-20T14:49:09.026Z,100.00
2023-02-20T14:51:37.738Z,100.00
2023-02-20T14:55:01.672Z,100.00
2023-02-20T14:57:30.399Z,100.00
2023-02-20T15:00:48.932Z,100.00
2023-02-20T15:03:30.989Z,100.00
2023-02-20T15:06:05.492Z,100.00
2023-02-20T15:08:36.361Z,100.00
2023-02-20T15:11:10.117Z,100.00
2023-02-20T15:13:41.447Z,100.00
2023-02-20T15:16:18.200Z,100.00
2023-02-20T15:18:50.121Z,100.00
2023-02-20T15:21:36.792Z,100.00
2023-02-20T15:24:30.212Z,100.00
2023-02-20T15:27:33.303Z,100.00
2023-02-20T15:30:12.620Z,100.00
2023-02-20T15:32:42.250Z,100.00
2023-02-20T15:35:17.444Z,100.00
2023-02-20T15:37:49.570Z,100.00
2023-02-20T15:40:21.312Z,100.00
2023-02-20T15:42:56.112Z,100.00
2023-02-20T15:45:28.938Z,100.00
2023-02-20T15:47:58.639Z,100.00
2023-02-20T15:50:27.515Z,100.00
2023-02-20T15:52:58.603Z,100.00
2023-02-20T15:55:28.307Z,100.00
2023-02-20T15:57:58.767Z,100.00
2023-02-20T16:00:32.926Z,100.00
2023-02-20T16:03:02.282Z,100.00
2023-02-20T16:05:31.136Z,100.00
2023-02-20T16:07:59.290Z,100.00
2023-02-20T16:10:28.159Z,100.00
2023-02-20T16:12:59.753Z,100.00
2023-02-20T16:15:28.673Z,100.00
2023-02-20T16:17:56.904Z,100.00
2023-02-20T16:20:30.883Z,100.00
2023-02-20T16:22:59.013Z,100.00
2023-02-20T16:25:27.435Z,100.00
2023-02-20T16:27:56.826Z,100.00
2023-02-20T16:30:33.631Z,100.00
2023-02-20T16:33:12.207Z,100.00
2023-02-20T16:35:40.989Z,100.00
2023-02-20T16:38:09.525Z,100.00
2023-02-20T16:40:37.853Z,100.00
2023-02-20T16:43:06.528Z,100.00
2023-02-20T16:45:37.031Z,100.00
2023-02-20T16:48:14.977Z,100.00
2023-02-20T16:50:43.920Z,100.00
2023-02-20T16:53:13.194Z,100.00
2023-02-20T16:55:42.358Z,100.00
2023-02-20T16:58:11.029Z,100.00
2023-02-20T17:00:47.796Z,100.00
2023-02-20T17:03:24.015Z,100.00
2023-02-20T17:05:58.627Z,100.00
2023-02-20T17:08:27.766Z,100.00
2023-02-20T17:10:56.130Z,100.00
2023-02-20T17:13:24.262Z,100.00
2023-02-20T17:15:52.363Z,100.00
2023-02-20T17:18:20.614Z,100.00
2023-02-20T17:20:48.737Z,100.00
2023-02-20T17:23:17.085Z,100.00
2023-02-20T17:25:45.335Z,100.00
2023-02-20T17:28:15.922Z,100.00
2023-02-20T17:30:49.275Z,100.00
2023-02-20T17:33:17.459Z,100.00
2023-02-20T17:35:46.016Z,100.00
2023-02-20T17:38:14.734Z,100.00
2023-02-20T17:40:42.904Z,100.00
2023-02-20T17:43:11.348Z,100.00
2023-02-20T17:45:39.795Z,100.00
2023-02-20T17:48:08.632Z,100.00
2023-02-20T17:50:36.879Z,100.00
2023-02-20T17:53:05.142Z,100.00
2023-02-20T17:55:34.119Z,100.00
2023-02-20T17:58:03.526Z,100.00
2023-02-20T18:00:31.653Z,100.00
2023-02-20T18:03:00.266Z,100.00
2023-02-20T18:05:28.802Z,100.00
2023-02-20T18:07:57.048Z,100.00
2023-02-20T18:10:25.338Z,100.00
2023-02-20T18:13:03.146Z,100.00
2023-02-20T18:15:36.402Z,100.00
2023-02-20T18:18:05.359Z,100.00
2023-02-20T18:20:33.614Z,100.00
2023-02-20T18:23:02.014Z,100.00
2023-02-20T18:25:39.932Z,100.00
2023-02-20T18:28:09.723Z,100.00
2023-02-20T18:30:39.249Z,100.00
2023-02-20T18:33:08.207Z,100.00
2023-02-20T18:35:36.632Z,100.00
2023-02-20T18:38:05.811Z,100.00
2023-02-20T18:40:34.165Z,100.00
2023-02-20T18:43:02.464Z,100.00
2023-02-20T18:45:30.658Z,100.00
2023-02-20T18:47:58.845Z,100.00
2023-02-20T18:50:27.113Z,100.00
2023-02-20T18:52:55.266Z,100.00
2023-02-20T18:55:24.343Z,100.00
2023-02-20T18:57:53.725Z,100.00
2023-02-20T19:04:34.249Z,100.00
2023-02-20T19:07:03.740Z,100.00
2023-02-20T19:09:36.880Z,100.00
2023-02-20T19:12:08.426Z,100.00
2023-02-20T19:14:37.509Z,100.00
2023-02-20T19:17:07.525Z,100.00
2023-02-20T19:19:35.677Z,100.00
2023-02-20T19:22:04.378Z,100.00
2023-02-20T19:24:32.522Z,100.00
2023-02-20T19:27:00.604Z,100.00
2023-02-20T19:29:28.835Z,100.00
2023-02-20T19:31:57.193Z,100.00
2023-02-20T19:34:25.830Z,100.00
2023-02-20T19:36:54.213Z,100.00
2023-02-20T19:39:22.594Z,100.00
2023-02-20T19:41:51.686Z,100.00
2023-02-20T19:44:20.325Z,100.00
2023-02-20T19:46:51.816Z,100.00
2023-02-20T19:49:20.652Z,100.00
2023-02-20T19:51:51.043Z,100.00
2023-02-20T19:54:26.350Z,100.00
2023-02-20T19:57:00.950Z,100.00
2023-02-20T19:59:30.205Z,100.00
2023-02-20T20:02:00.265Z,100.00
2023-02-20T20:04:32.010Z,100.00
2023-02-20T20:07:02.701Z,100.00
2023-02-20T20:09:38.934Z,100.00
2023-02-20T20:12:28.052Z,100.00
2023-02-20T20:14:56.491Z,100.00
2023-02-20T20:17:24.681Z,100.00
2023-02-20T20:19:58.900Z,100.00
2023-02-20T20:22:29.625Z,100.00
2023-02-20T20:24:58.620Z,100.00
2023-02-20T20:27:26.914Z,100.00
2023-02-20T20:29:55.184Z,100.00
2023-02-20T20:32:23.824Z,100.00
2023-02-20T20:34:55.126Z,100.00
2023-02-20T20:37:25.471Z,100.00
2023-02-20T20:39:56.587Z,100.00
2023-02-20T20:42:26.565Z,100.00
2023-02-20T20:44:59.309Z,100.00
2023-02-20T20:47:29.371Z,100.00
2023-02-20T20:49:58.622Z,100.00
2023-02-20T20:52:27.869Z,100.00
2023-02-20T20:54:57.663Z,100.00
2023-02-20T20:57:28.130Z,100.00
2023-02-20T20:59:59.401Z,100.00
2023-02-20T21:02:28.343Z,100.00
2023-02-20T21:05:09.149Z,100.00
2023-02-20T21:07:40.022Z,100.00
2023-02-20T21:10:09.266Z,100.00
2023-02-20T21:12:38.838Z,100.00
2023-02-20T21:15:08.495Z,100.00
2023-02-20T21:17:36.816Z,100.00
2023-02-20T21:20:08.389Z,100.00
2023-02-20T21:22:36.576Z,100.00
2023-02-20T21:25:06.011Z,100.00
2023-02-20T21:27:34.267Z,100.00
2023-02-20T21:30:04.368Z,100.00
2023-02-20T21:32:32.798Z,100.00
2023-02-20T21:35:01.044Z,100.00
2023-02-20T21:37:29.304Z,100.00
2023-02-20T21:39:57.597Z,100.00
2023-02-20T21:42:44.285Z,100.00
2023-02-20T21:45:12.478Z,100.00
2023-02-20T21:47:40.486Z,100.00
2023-02-20T21:50:09.332Z,100.00
2023-02-20T21:52:37.516Z,100.00
2023-02-20T21:55:10.169Z,100.00
2023-02-20T21:57:38.372Z,100.00
2023-02-20T22:00:09.093Z,100.00
2023-02-20T22:02:37.997Z,100.00
2023-02-20T22:05:08.270Z,100.00
2023-02-20T22:07:55.381Z,100.00
2023-02-20T22:10:43.253Z,100.00
2023-02-20T22:13:30.066Z,100.00
2023-02-20T22:16:16.813Z,100.00
2023-02-20T22:19:03.506Z,100.00
2023-02-20T22:21:51.016Z,100.00
2023-02-20T22:24:39.198Z,100.00
2023-02-20T22:27:28.739Z,100.00
2023-02-20T22:30:16.408Z,100.00
2023-02-20T22:33:03.052Z,100.00
2023-02-20T22:35:49.986Z,100.00
2023-02-20T22:38:36.426Z,100.00
2023-02-20T22:41:23.176Z,100.00
2023-02-20T22:44:09.758Z,100.00
2023-02-20T22:46:56.839Z,100.00
2023-02-20T22:49:43.805Z,100.00
2023-02-20T22:52:30.672Z,100.00
2023-02-20T22:55:17.400Z,100.00
2023-02-20T22:58:04.308Z,100.00
2023-02-20T23:00:50.775Z,100.00
2023-02-20T23:03:38.049Z,100.00
2023-02-20T23:06:24.939Z,100.00
2023-02-20T23:09:11.449Z,100.00
2023-02-20T23:11:58.225Z,100.00
2023-02-20T23:14:44.987Z,100.00
2023-02-20T23:17:37.200Z,100.00
2023-02-20T23:20:38.570Z,100.00
2023-02-20T23:23:27.370Z,100.00
2023-02-20T23:26:14.144Z,100.00
2023-02-20T23:29:01.185Z,100.00
2023-02-20T23:31:54.606Z,100.00
2023-02-20T23:34:42.652Z,100.00
2023-02-20T23:37:30.124Z,100.00
2023-02-20T23:40:21.179Z,100.00
2023-02-20T23:43:11.446Z,100.00
2023-02-20T23:45:58.212Z,100.00
2023-02-20T23:48:45.264Z,100.00
2023-02-20T23:51:32.768Z,100.00
2023-02-20T23:54:20.198Z,100.00
2023-02-20T23:57:25.123Z,100.00
